Time;durP1;ratioP1;P1;durP2;ratioP2;P2;SDS_P1;SDS_P2;PMS_P1;PMS_P2;Temp;Humidity;BMP_temperature;BMP_pressure;BME280_temperature;BME280_humidity;BME280_pressure;Samples;Min_cycle;Max_cycle;Signal;HPM_P1;HPM_P2
2022/02/26 00:01:17;;;;;;;28.5;34.3;;;;;;;-1.2;79.5;99460;;;;
2022/02/26 00:11:17;;;;;;;22.4;27.4;;;;;;;-1.5;79.3;99460;;;;
2022/02/26 00:21:17;;;;;;;22.4;27.4;;;;;;;-1.8;79.1;99470;;;;
2022/02/26 00:32:17;;;;;;;22.4;27.4;;;;;;;-2;79.3;99470;;;;
2022/02/26 00:42:17;;;;;;;18.1;26.3;;;;;;;-2.2;79.8;99480;;;;
2022/02/26 00:52:17;;;;;;;18.1;26.3;;;;;;;-2.3;79.9;99480;;;;
2022/02/26 01:03:17;;;;;;;18.1;26.3;;;;;;;-2.4;80.1;99480;;;;
2022/02/26 01:14:17;;;;;;;27.7;34.4;;;;;;;-2.5;80.5;99490;;;;
2022/02/26 01:24:17;;;;;;;27.7;34.4;;;;;;;-2.8;80.3;99490;;;;
2022/02/26 01:34:17;;;;;;;27.7;34.4;;;;;;;-3;80.2;99480;;;;
2022/02/26 01:45:17;;;;;;;48;64.2;;;;;;;-3.1;80.5;99490;;;;
2022/02/26 01:56:17;;;;;;;48;64.2;;;;;;;-3.2;80.9;99500;;;;
2022/02/26 02:06:17;;;;;;;48;64.2;;;;;;;-3.2;81.7;99490;;;;
2022/02/26 02:16:17;;;;;;;25.9;37.7;;;;;;;-3.3;81.3;99500;;;;
2022/02/26 02:27:17;;;;;;;25.9;37.7;;;;;;;-3.3;81.6;99500;;;;
2022/02/26 02:37:17;;;;;;;25.9;37.7;;;;;;;-3.2;81.6;99510;;;;
2022/02/26 02:47:17;;;;;;;16.9;23.8;;;;;;;-3.3;81.3;99510;;;;
2022/02/26 02:57:18;;;;;;;16.9;23.8;;;;;;;-3.2;81.7;99520;;;;
2022/02/26 03:08:17;;;;;;;16.9;23.8;;;;;;;-3.3;81.2;99530;;;;
2022/02/26 03:19:17;;;;;;;10.8;15.6;;;;;;;-3.3;81.3;99540;;;;
2022/02/26 03:29:17;;;;;;;10.8;15.6;;;;;;;-3.3;81.2;99550;;;;
2022/02/26 03:39:17;;;;;;;9.4;14.1;;;;;;;-3.2;81.3;99550;;;;
2022/02/26 03:50:17;;;;;;;9.4;14.1;;;;;;;-3;81.2;99570;;;;
2022/02/26 04:00:17;;;;;;;9.4;14.1;;;;;;;-3;80.9;99570;;;;
2022/02/26 04:11:17;;;;;;;9.1;14.1;;;;;;;-3.1;80.5;99590;;;;
2022/02/26 04:21:17;;;;;;;9.1;14.1;;;;;;;-3.3;80.2;99600;;;;
2022/02/26 04:32:17;;;;;;;9.1;14.1;;;;;;;-3.4;80.1;99610;;;;
2022/02/26 04:43:17;;;;;;;13.3;18.9;;;;;;;-3.7;79.8;99620;;;;
2022/02/26 04:53:17;;;;;;;13.3;18.9;;;;;;;-3.8;80.1;99640;;;;
2022/02/26 05:04:17;;;;;;;13.3;18.9;;;;;;;-3.9;80.4;99650;;;;
2022/02/26 05:14:17;;;;;;;12.9;21.8;;;;;;;-4.1;80.4;99670;;;;
2022/02/26 05:24:17;;;;;;;12.9;21.8;;;;;;;-4.1;80.5;99680;;;;
2022/02/26 05:34:17;;;;;;;12.9;21.8;;;;;;;-4.1;80.7;99690;;;;
2022/02/26 05:45:17;;;;;;;8.4;15.2;;;;;;;-3.3;82.7;99710;;;;
2022/02/26 05:55:17;;;;;;;8.4;15.2;;;;;;;-3.3;80.8;99730;;;;
2022/02/26 06:06:17;;;;;;;8.4;15.2;;;;;;;-3.3;80.5;99730;;;;
2022/02/26 06:16:17;;;;;;;27.1;34.8;;;;;;;-3.3;80.2;99740;;;;
2022/02/26 06:26:17;;;;;;;27.1;34.8;;;;;;;-3.3;80.1;99760;;;;
2022/02/26 06:37:17;;;;;;;27.1;34.8;;;;;;;-3.2;80.2;99770;;;;
2022/02/26 06:48:17;;;;;;;31.5;37.5;;;;;;;-2.7;80.6;99780;;;;
2022/02/26 06:59:17;;;;;;;31.5;37.5;;;;;;;-2.3;80.7;99790;;;;
2022/02/26 07:09:17;;;;;;;50.1;63.2;;;;;;;-1.8;80.7;99810;;;;
2022/02/26 07:19:17;;;;;;;50.1;63.2;;;;;;;-1.3;80.6;99820;;;;
2022/02/26 07:30:17;;;;;;;50.1;63.2;;;;;;;-0.6;80.6;99830;;;;
2022/02/26 07:40:17;;;;;;;48.5;58.5;;;;;;;0.5;79.7;99850;;;;
2022/02/26 07:51:17;;;;;;;48.5;58.5;;;;;;;1.5;75.3;99860;;;;
2022/02/26 08:01:17;;;;;;;48.5;58.5;;;;;;;2.1;74.4;99880;;;;
2022/02/26 08:11:17;;;;;;;27.1;30.7;;;;;;;2.7;70.5;99890;;;;
2022/02/26 08:22:17;;;;;;;27.1;30.7;;;;;;;3.6;69.6;99900;;;;
2022/02/26 08:32:17;;;;;;;27.1;30.7;;;;;;;4.2;66;99900;;;;
2022/02/26 08:43:17;;;;;;;21;24.4;;;;;;;4.9;63.1;99900;;;;
2022/02/26 08:53:17;;;;;;;21;24.4;;;;;;;4.9;59;99910;;;;
2022/02/26 09:04:17;;;;;;;21;24.4;;;;;;;4.4;60.7;99920;;;;
2022/02/26 09:15:17;;;;;;;16.9;20.2;;;;;;;5;61;99940;;;;
2022/02/26 09:26:17;;;;;;;16.9;20.2;;;;;;;5.3;61.6;99960;;;;
2022/02/26 09:36:17;;;;;;;16.9;20.2;;;;;;;5.7;61;99970;;;;
2022/02/26 09:47:17;;;;;;;24.5;28.3;;;;;;;5.5;61.9;99980;;;;
2022/02/26 09:57:18;;;;;;;24.5;28.3;;;;;;;5.5;63.3;100000;;;;
2022/02/26 10:07:17;;;;;;;22.6;26.7;;;;;;;5.1;65.4;100000;;;;
2022/02/26 10:17:17;;;;;;;22.6;26.7;;;;;;;5.3;65.4;100010;;;;
2022/02/26 10:27:17;;;;;;;22.6;26.7;;;;;;;5.5;65.8;100010;;;;
2022/02/26 10:37:17;;;;;;;16.5;23.7;;;;;;;5.8;66.1;100010;;;;
2022/02/26 10:48:17;;;;;;;16.5;23.7;;;;;;;6.3;65;100020;;;;
2022/02/26 10:59:17;;;;;;;16.5;23.7;;;;;;;6.4;64.6;100020;;;;
2022/02/26 11:09:17;;;;;;;19.1;24;;;;;;;6.8;63.1;100020;;;;
2022/02/26 11:19:17;;;;;;;19.1;24;;;;;;;7;62.7;100030;;;;
2022/02/26 11:29:17;;;;;;;19.1;24;;;;;;;6.3;64.1;100020;;;;
2022/02/26 11:39:17;;;;;;;19.3;25.5;;;;;;;6.9;64.2;100020;;;;
2022/02/26 11:50:18;;;;;;;19.3;25.5;;;;;;;6.7;63.4;100030;;;;
2022/02/26 12:00:17;;;;;;;19.3;25.5;;;;;;;6.6;62.3;100030;;;;
2022/02/26 12:11:17;;;;;;;14.6;18.8;;;;;;;6.5;62;100030;;;;
2022/02/26 12:22:17;;;;;;;14.6;18.8;;;;;;;6.7;61.1;100030;;;;
2022/02/26 12:32:17;;;;;;;14.6;18.8;;;;;;;6.9;61.3;100030;;;;
2022/02/26 12:43:17;;;;;;;18.4;23;;;;;;;7;61;100020;;;;
2022/02/26 12:54:17;;;;;;;18.4;23;;;;;;;6.7;61.8;100020;;;;
2022/02/26 13:04:17;;;;;;;18.4;23;;;;;;;6.7;61.7;100020;;;;
2022/02/26 13:15:17;;;;;;;14;19.6;;;;;;;7;62.1;100020;;;;
2022/02/26 13:25:17;;;;;;;14;19.6;;;;;;;7.3;60.9;100010;;;;
2022/02/26 13:35:17;;;;;;;14;19.6;;;;;;;7.5;60.6;100020;;;;
2022/02/26 13:45:17;;;;;;;17.5;20.7;;;;;;;7.5;60.4;100020;;;;
2022/02/26 13:55:17;;;;;;;17.5;20.7;;;;;;;7.1;61.7;100020;;;;
2022/02/26 14:06:17;;;;;;;17.5;20.7;;;;;;;6.7;63.1;100020;;;;
2022/02/26 14:17:19;;;;;;;17.6;26.8;;;;;;;6.1;66.1;100030;;;;
2022/02/26 14:28:17;;;;;;;17.6;26.8;;;;;;;6.2;66.5;100030;;;;
2022/02/26 14:38:17;;;;;;;22.9;28.4;;;;;;;6.1;66.4;100030;;;;
2022/02/26 14:49:17;;;;;;;22.9;28.4;;;;;;;5.8;67.3;100040;;;;
2022/02/26 15:00:17;;;;;;;22.9;28.4;;;;;;;5.9;66.4;100050;;;;
2022/02/26 15:11:17;;;;;;;21.1;25.6;;;;;;;5.7;66.1;100060;;;;
2022/02/26 15:21:17;;;;;;;21.1;25.6;;;;;;;5.4;66.5;100070;;;;
2022/02/26 15:32:17;;;;;;;21.1;25.6;;;;;;;4.9;67.5;100080;;;;
2022/02/26 15:43:17;;;;;;;24.3;27.8;;;;;;;4.7;67.9;100090;;;;
2022/02/26 15:53:17;;;;;;;24.3;27.8;;;;;;;4.5;67.6;100110;;;;
2022/02/26 16:03:17;;;;;;;24.3;27.8;;;;;;;4.3;68.8;100130;;;;
2022/02/26 16:14:17;;;;;;;22.7;28;;;;;;;4.1;70.6;100140;;;;
2022/02/26 16:24:17;;;;;;;22.7;28;;;;;;;3.9;71;100160;;;;
2022/02/26 16:35:17;;;;;;;22.7;28;;;;;;;3.8;72.1;100170;;;;
2022/02/26 16:46:17;;;;;;;34.1;39.3;;;;;;;3.7;73.6;100190;;;;
2022/02/26 16:56:17;;;;;;;34.1;39.3;;;;;;;3.2;74.9;100190;;;;
2022/02/26 17:06:17;;;;;;;28.6;37.4;;;;;;;2.8;76.2;100210;;;;
2022/02/26 17:16:17;;;;;;;28.6;37.4;;;;;;;2.4;76.7;100210;;;;
2022/02/26 17:26:17;;;;;;;28.6;37.4;;;;;;;2.2;76.4;100220;;;;
2022/02/26 17:36:18;;;;;;;25.6;31.9;;;;;;;1.9;76.5;100220;;;;
2022/02/26 17:46:17;;;;;;;25.6;31.9;;;;;;;1.8;77.3;100240;;;;
2022/02/26 17:56:17;;;;;;;25.6;31.9;;;;;;;1.9;77.5;100240;;;;
2022/02/26 18:06:17;;;;;;;34.5;38.7;;;;;;;2;78.2;100250;;;;
2022/02/26 18:17:17;;;;;;;34.5;38.7;;;;;;;1.9;79.2;100260;;;;
2022/02/26 18:28:17;;;;;;;34.5;38.7;;;;;;;1.9;80.3;100270;;;;
2022/02/26 18:38:17;;;;;;;33.6;40.8;;;;;;;1.9;80.5;100270;;;;
2022/02/26 18:48:17;;;;;;;33.6;40.8;;;;;;;1.7;80.4;100280;;;;
2022/02/26 18:58:17;;;;;;;33.6;40.8;;;;;;;1.8;80.3;100290;;;;
2022/02/26 19:08:17;;;;;;;33.9;41.1;;;;;;;2;80;100300;;;;
2022/02/26 19:18:17;;;;;;;33.9;41.1;;;;;;;1.8;79;100310;;;;
2022/02/26 19:28:17;;;;;;;33.9;41.1;;;;;;;1.4;78.8;100320;;;;
2022/02/26 19:39:17;;;;;;;37.3;42.9;;;;;;;1;78.5;100330;;;;
2022/02/26 19:49:17;;;;;;;37.3;42.9;;;;;;;0.7;79;100330;;;;
2022/02/26 19:59:17;;;;;;;37.3;42.9;;;;;;;0.7;80.6;100340;;;;
2022/02/26 20:10:17;;;;;;;44.4;50.4;;;;;;;0.8;80.9;100340;;;;
2022/02/26 20:20:17;;;;;;;44.4;50.4;;;;;;;0.9;81.1;100350;;;;
2022/02/26 20:31:17;;;;;;;44.4;50.4;;;;;;;1;81.4;100350;;;;
2022/02/26 20:41:17;;;;;;;44.3;56.6;;;;;;;1.1;81.1;100350;;;;
2022/02/26 20:51:17;;;;;;;44.3;56.6;;;;;;;1.1;81.3;100340;;;;
2022/02/26 21:02:17;;;;;;;44.3;56.6;;;;;;;1.1;81.1;100350;;;;
2022/02/26 21:12:17;;;;;;;58;77.7;;;;;;;1.2;80.7;100360;;;;
2022/02/26 21:23:18;;;;;;;58;77.7;;;;;;;0.9;80;100350;;;;
2022/02/26 21:33:17;;;;;;;58;77.7;;;;;;;0.7;80.6;100340;;;;
2022/02/26 21:43:19;;;;;;;47.6;54.5;;;;;;;0.6;80.7;100350;;;;
2022/02/26 21:53:17;;;;;;;47.6;54.5;;;;;;;0.4;82.3;100350;;;;
2022/02/26 22:04:17;;;;;;;47.6;54.5;;;;;;;0.4;82.3;100340;;;;
2022/02/26 22:14:17;;;;;;;52.3;62.8;;;;;;;0.4;81.9;100340;;;;
2022/02/26 22:25:18;;;;;;;52.3;62.8;;;;;;;0.1;82.1;100350;;;;
2022/02/26 22:36:17;;;;;;;50.5;62.5;;;;;;;-0.1;81.7;100340;;;;
2022/02/26 22:46:17;;;;;;;50.5;62.5;;;;;;;-0.3;82.2;100350;;;;
2022/02/26 22:56:17;;;;;;;50.5;62.5;;;;;;;-0.5;82.1;100350;;;;
2022/02/26 23:06:17;;;;;;;47.8;55.8;;;;;;;-0.6;82.7;100350;;;;
2022/02/26 23:17:17;;;;;;;47.8;55.8;;;;;;;-0.8;82.7;100360;;;;
2022/02/26 23:27:17;;;;;;;47.8;55.8;;;;;;;-0.7;83.7;100370;;;;
2022/02/26 23:37:17;;;;;;;51.6;64.7;;;;;;;-0.9;83.5;100370;;;;
2022/02/26 23:48:17;;;;;;;51.6;64.7;;;;;;;-1;83.2;100370;;;;
2022/02/26 23:58:17;;;;;;;51.6;64.7;;;;;;;-0.8;85.9;100370;;;;
